Time;durP1;ratioP1;P1;durP2;ratioP2;P2;SDS_P1;SDS_P2;PMS_P1;PMS_P2;Temp;Humidity;BMP_temperature;BMP_pressure;BME280_temperature;BME280_humidity;BME280_pressure;Samples;Min_cycle;Max_cycle;Signal;HPM_P1;HPM_P2
2020/12/16 00:02:08;;;;;;;45.73;28.77;;;;;;;2.80;85.79;100728.37;1801508;78;25915;-78
2020/12/16 00:04:34;;;;;;;46.90;27.27;;;;;;;2.80;86.00;100730.48;1798945;78;25729;-78
2020/12/16 00:07:01;;;;;;;48.40;29.20;;;;;;;2.80;86.00;100730.48;1799247;78;25924;-78
2020/12/16 00:09:27;;;;;;;47.17;27.45;;;;;;;2.76;85.54;100727.77;1804534;78;25641;-78
2020/12/16 00:11:53;;;;;;;44.55;27.35;;;;;;;2.76;85.54;100727.77;1809686;78;26270;-78
2020/12/16 00:14:20;;;;;;;43.40;27.17;;;;;;;2.72;85.74;100717.28;1801384;78;26200;-78
2020/12/16 00:16:46;;;;;;;46.75;27.32;;;;;;;2.81;85.93;100721.83;1799417;78;25759;-78
2020/12/16 00:19:12;;;;;;;46.33;28.15;;;;;;;2.76;85.82;100705.83;1799495;78;26497;-78
2020/12/16 00:21:39;;;;;;;47.93;28.40;;;;;;;2.86;85.76;100722.34;1800282;78;25876;-78
2020/12/16 00:24:05;;;;;;;46.60;30.02;;;;;;;2.91;85.79;100716.02;1798863;78;25670;-78
2020/12/16 00:26:33;;;;;;;47.93;29.63;;;;;;;2.92;85.58;100709.91;1799465;78;25682;-79
2020/12/16 00:28:59;;;;;;;46.68;28.38;;;;;;;2.93;85.74;100720.62;1796873;78;26317;-78
2020/12/16 00:31:26;;;;;;;46.20;28.05;;;;;;;2.90;85.60;100717.78;1798008;78;25831;-77
2020/12/16 00:33:52;;;;;;;47.25;28.77;;;;;;;2.85;85.60;100715.51;1799698;78;25744;-78
2020/12/16 00:36:18;;;;;;;52.30;30.12;;;;;;;2.85;85.60;100715.51;1752149;78;26794;-77
2020/12/16 00:38:45;;;;;;;42.78;28.47;;;;;;;2.84;85.71;100716.45;1797398;78;25681;-77
2020/12/16 00:41:12;;;;;;;41.50;26.23;;;;;;;2.86;85.75;100715.89;1805521;78;25643;-77
2020/12/16 00:43:38;;;;;;;47.60;27.62;;;;;;;2.82;85.56;100726.52;1804704;79;25782;-78
2020/12/16 00:46:05;;;;;;;43.28;26.70;;;;;;;2.77;85.47;100729.41;1807468;78;26505;-77
2020/12/16 00:48:31;;;;;;;45.08;27.25;;;;;;;2.76;85.50;100730.83;1799893;78;26938;-77
2020/12/16 00:50:57;;;;;;;45.70;28.40;;;;;;;2.78;85.61;100732.81;1802538;78;25831;-77
2020/12/16 00:53:24;;;;;;;44.35;26.75;;;;;;;2.79;85.58;100735.77;1801693;79;25933;-77
2020/12/16 00:55:52;;;;;;;46.83;28.10;;;;;;;2.81;85.59;100736.03;1805333;78;25809;-77
2020/12/16 00:58:19;;;;;;;45.78;29.02;;;;;;;2.82;85.48;100734.27;1805980;78;25696;-77
2020/12/16 01:00:47;;;;;;;46.65;27.10;;;;;;;2.84;85.63;100736.28;1779474;79;26047;-77
2020/12/16 01:03:13;;;;;;;48.48;28.50;;;;;;;2.86;85.59;100735.69;1804281;78;25744;-78
2020/12/16 01:05:40;;;;;;;45.28;26.70;;;;;;;2.87;85.51;100738.65;1802849;78;25726;-77
2020/12/16 01:08:06;;;;;;;45.65;28.65;;;;;;;2.81;85.46;100730.86;1802344;78;25680;-78
2020/12/16 01:10:33;;;;;;;50.00;30.20;;;;;;;2.84;85.53;100741.45;1805014;78;26335;-78
2020/12/16 01:12:59;;;;;;;45.85;29.30;;;;;;;2.73;85.89;100715.52;1803838;78;26528;-77
2020/12/16 01:15:26;;;;;;;44.08;25.90;;;;;;;2.82;85.60;100732.97;1803192;78;25991;-77
2020/12/16 01:17:54;;;;;;;43.78;27.32;;;;;;;2.73;85.65;100721.53;1804569;78;25318;-78
2020/12/16 01:20:22;;;;;;;44.60;28.17;;;;;;;2.85;85.52;100718.09;1806807;78;25724;-78
2020/12/16 01:22:49;;;;;;;44.53;29.18;;;;;;;2.85;85.52;100718.09;1805341;78;25821;-77
2020/12/16 01:25:19;;;;;;;48.68;28.42;;;;;;;2.86;85.45;100727.50;1805718;78;26355;-77
2020/12/16 01:27:55;;;;;;;48.75;27.40;;;;;;;2.88;85.38;100726.91;1804528;78;25925;-78
2020/12/16 01:30:21;;;;;;;51.02;29.70;;;;;;;2.89;85.33;100730.31;1805331;79;25756;-78
2020/12/16 01:32:51;;;;;;;46.15;28.50;;;;;;;2.89;85.33;100730.31;1804035;78;25749;-77
2020/12/16 01:35:20;;;;;;;46.68;27.55;;;;;;;2.91;85.43;100728.45;1804993;78;25824;-78
2020/12/16 01:37:46;;;;;;;46.92;28.55;;;;;;;2.95;85.46;100730.38;1805278;78;25786;-78
2020/12/16 01:40:16;;;;;;;47.43;28.67;;;;;;;2.91;85.29;100732.80;1771051;78;25781;-78
2020/12/16 01:42:44;;;;;;;51.98;29.72;;;;;;;2.86;85.24;100735.69;1797695;78;26428;-77
2020/12/16 01:45:15;;;;;;;45.52;29.20;;;;;;;2.84;85.28;100738.39;1797422;78;26439;-78
2020/12/16 01:47:42;;;;;;;44.77;28.42;;;;;;;2.73;85.02;100739.60;1771992;78;26201;-77
2020/12/16 01:50:12;;;;;;;50.43;30.27;;;;;;;2.73;85.02;100739.60;1795751;78;25877;-77
2020/12/16 01:52:40;;;;;;;50.92;29.85;;;;;;;2.72;85.36;100731.95;1797258;78;25705;-78
2020/12/16 01:55:10;;;;;;;44.60;27.45;;;;;;;2.73;85.39;100738.31;1797353;78;25851;-78
2020/12/16 01:57:45;;;;;;;47.58;28.85;;;;;;;2.67;85.00;100723.22;1793365;78;25745;-78
2020/12/16 02:00:15;;;;;;;42.65;27.90;;;;;;;2.76;85.26;100747.60;1797724;78;25828;-78
2020/12/16 02:02:51;;;;;;;48.73;28.65;;;;;;;2.76;85.26;100747.60;1795936;78;26554;-77
2020/12/16 02:05:25;;;;;;;47.83;29.18;;;;;;;2.80;85.40;100750.31;1795438;78;25732;-77
2020/12/16 02:07:56;;;;;;;48.10;29.75;;;;;;;2.83;85.37;100747.52;1798044;78;25731;-77
2020/12/16 02:10:24;;;;;;;48.35;29.72;;;;;;;2.88;85.14;100741.11;1760392;80;25793;-77
2020/12/16 02:12:51;;;;;;;47.17;28.52;;;;;;;2.88;85.14;100741.11;1787595;79;26355;-77
2020/12/16 02:15:17;;;;;;;46.63;29.80;;;;;;;2.87;85.23;100743.34;1798363;79;25845;-77
2020/12/16 02:18:02;;;;;;;48.10;28.23;;;;;;;2.85;85.12;100738.74;1797803;78;25769;-77
2020/12/16 02:20:28;;;;;;;52.03;30.20;;;;;;;2.72;85.12;100719.86;1791848;78;25265;-77
2020/12/16 02:22:56;;;;;;;47.38;28.92;;;;;;;2.79;85.07;100736.59;1796361;78;26378;-77
2020/12/16 02:25:25;;;;;;;49.33;28.70;;;;;;;2.76;85.04;100728.25;1796619;79;33347;-77
2020/12/16 02:28:10;;;;;;;46.98;28.42;;;;;;;2.73;85.03;100727.14;1773662;79;26117;-77
2020/12/16 02:30:38;;;;;;;49.65;27.82;;;;;;;2.71;85.08;100730.31;1795155;78;26712;-77
2020/12/16 02:33:18;;;;;;;52.08;28.73;;;;;;;2.70;84.93;100728.64;1796976;78;25880;-77
2020/12/16 02:35:49;;;;;;;47.00;28.90;;;;;;;2.60;85.05;100703.95;1793318;78;25654;-77
2020/12/16 02:38:17;;;;;;;47.17;28.15;;;;;;;2.60;85.05;100703.95;1787597;79;26612;-77
2020/12/16 02:41:01;;;;;;;46.73;28.00;;;;;;;2.72;85.01;100722.45;1742215;77;26243;-77
2020/12/16 02:43:29;;;;;;;46.85;29.82;;;;;;;2.74;85.02;100727.05;1713481;81;25770;-77
2020/12/16 02:45:56;;;;;;;43.80;27.60;;;;;;;2.76;85.06;100716.16;1738039;80;26251;-77
2020/12/16 02:48:23;;;;;;;49.05;28.73;;;;;;;2.77;84.87;100723.43;1711380;81;25759;-77
2020/12/16 02:50:50;;;;;;;50.08;28.50;;;;;;;2.77;84.87;100723.43;1739145;80;25722;-79
2020/12/16 02:53:17;;;;;;;47.38;28.83;;;;;;;2.72;84.87;100708.72;1716525;81;25854;-77
2020/12/16 02:55:48;;;;;;;52.62;30.92;;;;;;;2.70;84.91;100708.84;1655105;85;25822;-77
2020/12/16 02:58:15;;;;;;;50.78;30.50;;;;;;;2.70;84.96;100711.86;1655533;85;26800;-77
2020/12/16 03:00:41;;;;;;;45.88;28.47;;;;;;;2.68;84.89;100711.17;1656074;84;25853;-77
2020/12/16 03:03:12;;;;;;;51.02;29.92;;;;;;;2.55;84.81;100704.25;1629061;86;25853;-77
2020/12/16 03:05:43;;;;;;;44.77;27.98;;;;;;;2.57;84.85;100717.06;1618937;86;26662;-77
2020/12/16 03:08:12;;;;;;;45.40;26.70;;;;;;;2.52;84.92;100704.94;1656425;84;25735;-78
2020/12/16 03:10:40;;;;;;;48.02;28.35;;;;;;;2.56;84.83;100719.27;1657049;84;25871;-77
2020/12/16 03:13:06;;;;;;;49.53;29.25;;;;;;;2.42;84.81;100706.02;1656637;84;26025;-77
2020/12/16 03:15:33;;;;;;;52.27;29.42;;;;;;;2.43;84.69;100712.84;1655487;84;25860;-77
2020/12/16 03:18:00;;;;;;;54.60;30.95;;;;;;;2.51;84.80;100728.63;1655572;84;25895;-77
2020/12/16 03:20:44;;;;;;;46.13;28.77;;;;;;;2.53;84.84;100727.22;1632510;84;26705;-77
2020/12/16 03:23:18;;;;;;;47.58;28.77;;;;;;;2.57;84.91;100735.13;1655071;84;25339;-78
2020/12/16 03:26:06;;;;;;;49.03;29.10;;;;;;;2.57;84.91;100735.13;1655176;84;25892;-77
2020/12/16 03:28:40;;;;;;;49.38;29.18;;;;;;;2.52;84.76;100728.16;1652902;84;25838;-77
2020/12/16 03:31:16;;;;;;;48.70;30.15;;;;;;;2.52;84.98;100739.30;1650340;84;26030;-77
2020/12/16 03:34:01;;;;;;;48.28;28.30;;;;;;;2.42;84.57;100747.28;1715092;81;25608;-77
2020/12/16 03:36:34;;;;;;;47.00;27.60;;;;;;;2.42;84.57;100747.28;1735873;80;25540;-77
2020/12/16 03:39:04;;;;;;;47.38;29.82;;;;;;;2.39;84.97;100744.45;1714710;81;25825;-77
2020/12/16 03:41:35;;;;;;;45.70;26.40;;;;;;;2.44;84.91;100752.70;1707676;80;25940;-77
2020/12/16 03:44:03;;;;;;;50.10;29.32;;;;;;;2.44;84.91;100752.70;1736634;80;25875;-77
2020/12/16 03:46:31;;;;;;;46.30;28.05;;;;;;;2.48;85.03;100756.36;1736705;80;25952;-77
2020/12/16 03:48:58;;;;;;;46.90;29.87;;;;;;;2.50;85.00;100754.05;1735554;80;25659;-77
2020/12/16 03:51:26;;;;;;;47.38;28.67;;;;;;;2.53;84.95;100758.17;1735602;82;26690;-77
2020/12/16 03:53:54;;;;;;;49.25;30.00;;;;;;;2.54;84.87;100755.50;1737722;80;25895;-77
2020/12/16 03:56:25;;;;;;;49.67;29.72;;;;;;;2.53;84.84;100756.88;1727778;80;27339;-77
2020/12/16 03:59:10;;;;;;;49.85;30.10;;;;;;;2.53;84.87;100752.55;1737115;82;25834;-77
2020/12/16 04:01:47;;;;;;;50.03;29.75;;;;;;;2.53;84.85;100758.99;1735248;80;26784;-77
2020/12/16 04:04:13;;;;;;;48.33;31.52;;;;;;;2.51;84.73;100760.88;1736980;80;26360;-77
2020/12/16 04:06:42;;;;;;;54.20;30.23;;;;;;;2.36;84.82;100738.67;1741333;81;25721;-77
2020/12/16 04:09:08;;;;;;;48.52;29.60;;;;;;;2.36;84.82;100738.67;1742535;79;26355;-77
2020/12/16 04:11:45;;;;;;;44.85;27.98;;;;;;;2.47;84.90;100754.72;1741008;80;25770;-77
2020/12/16 04:14:13;;;;;;;46.53;28.07;;;;;;;2.47;84.91;100760.70;1735409;79;25652;-77
2020/12/16 04:16:40;;;;;;;45.03;26.93;;;;;;;2.39;85.05;100749.61;1748200;79;26339;-77
2020/12/16 04:19:11;;;;;;;44.58;27.62;;;;;;;2.54;84.88;100767.12;1747727;79;25727;-77
2020/12/16 04:21:38;;;;;;;45.65;28.10;;;;;;;2.55;84.85;100763.59;1748580;80;26503;-77
2020/12/16 04:24:05;;;;;;;48.13;28.52;;;;;;;2.59;84.79;100763.77;1739691;80;25796;-77
2020/12/16 04:26:33;;;;;;;51.33;31.87;;;;;;;2.61;84.75;100755.91;1742460;80;25795;-77
2020/12/16 04:29:03;;;;;;;50.38;29.82;;;;;;;2.62;84.72;100760.16;1742459;79;25336;-77
2020/12/16 04:34:55;;;;;;;50.17;30.48;;;;;;;2.63;84.70;100754.88;1737648;79;25882;-77
2020/12/16 04:37:21;;;;;;;46.77;29.35;;;;;;;2.58;84.51;100747.08;1744215;79;25904;-77
2020/12/16 04:39:50;;;;;;;49.08;27.75;;;;;;;2.60;84.68;100756.84;1740138;80;26545;-77
2020/12/16 04:42:16;;;;;;;47.73;28.52;;;;;;;2.57;84.64;100762.22;1741516;81;25819;-77
2020/12/16 04:44:43;;;;;;;49.58;30.62;;;;;;;2.54;84.61;100755.98;1743457;81;25802;-77
2020/12/16 04:47:12;;;;;;;45.95;27.87;;;;;;;2.49;84.20;100761.91;1748501;79;26758;-77
2020/12/16 04:49:40;;;;;;;50.03;28.38;;;;;;;2.49;84.20;100761.91;1743671;79;25712;-77
2020/12/16 04:55:32;;;;;;;46.92;28.47;;;;;;;2.51;84.55;100769.05;1742859;79;26342;-77
2020/12/16 04:58:07;;;;;;;50.30;29.00;;;;;;;2.55;84.67;100767.94;1740821;79;25745;-77
2020/12/16 05:00:35;;;;;;;52.83;29.07;;;;;;;2.54;84.58;100768.87;1707797;81;25811;-77
2020/12/16 05:03:28;;;;;;;46.05;28.05;;;;;;;2.56;84.57;100761.84;1698467;83;26501;-77
2020/12/16 05:06:02;;;;;;;50.03;28.40;;;;;;;2.57;84.54;100757.05;1698202;82;26818;-77
2020/12/16 05:08:29;;;;;;;47.48;29.05;;;;;;;2.55;84.73;100750.70;1698954;82;25724;-77
2020/12/16 05:10:55;;;;;;;49.95;29.32;;;;;;;2.55;84.56;100742.95;1698299;83;25736;-78
2020/12/16 05:13:25;;;;;;;52.15;29.90;;;;;;;2.53;84.51;100744.80;1699688;81;25906;-77
2020/12/16 05:15:51;;;;;;;;;;;;;;;2.50;84.50;100741.14;1701509;82;26432;-77
2020/12/16 05:18:25;;;;;;;48.40;28.70;;;;;;;2.47;84.59;100739.25;1676277;82;35523;-77
2020/12/16 05:21:01;;;;;;;46.15;27.87;;;;;;;2.47;84.68;100739.25;1705153;81;25535;-77
2020/12/16 05:23:31;;;;;;;48.23;29.00;;;;;;;2.48;85.05;100739.59;1701245;81;25857;-78
2020/12/16 05:26:02;;;;;;;45.58;26.35;;;;;;;2.48;85.05;100739.59;1696205;83;26236;-78
2020/12/16 05:28:33;;;;;;;45.67;27.93;;;;;;;2.36;84.47;100738.20;1697667;83;25803;-77
2020/12/16 05:31:06;;;;;;;43.68;27.30;;;;;;;2.44;84.47;100766.08;1696296;82;25926;-77
2020/12/16 05:33:45;;;;;;;45.70;27.55;;;;;;;2.41;84.51;100767.57;1694335;83;25957;-77
2020/12/16 05:36:12;;;;;;;49.13;28.70;;;;;;;2.45;84.70;100776.74;1697102;83;25986;-77
2020/12/16 05:38:53;;;;;;;45.48;28.92;;;;;;;2.48;84.58;100770.55;1695630;82;26395;-77
2020/12/16 05:41:29;;;;;;;47.55;29.02;;;;;;;2.49;84.63;100776.09;1681891;83;25806;-77
2020/12/16 05:44:16;;;;;;;50.78;28.17;;;;;;;2.48;84.68;100781.69;1704427;82;25897;-78
2020/12/16 05:46:43;;;;;;;47.53;27.87;;;;;;;2.51;84.78;100774.22;1716258;81;25804;-77
2020/12/16 05:49:26;;;;;;;49.67;29.35;;;;;;;2.54;84.93;100776.15;1720287;81;25802;-77
2020/12/16 05:52:02;;;;;;;42.65;26.90;;;;;;;2.54;84.93;100776.15;1719783;81;26726;-77
2020/12/16 05:54:29;;;;;;;50.67;25.82;;;;;;;2.53;84.69;100776.23;1718181;81;25843;-77
2020/12/16 05:57:25;;;;;;;45.08;25.00;;;;;;;2.56;84.78;100782.00;1714960;82;26304;-77
2020/12/16 06:00:14;;;;;;;44.13;25.17;;;;;;;2.56;84.63;100776.84;1709527;81;25278;-77
2020/12/16 06:02:45;;;;;;;43.55;26.02;;;;;;;2.48;84.83;100763.63;1726949;79;26529;-78
2020/12/16 06:05:14;;;;;;;49.63;27.40;;;;;;;2.70;84.66;100775.09;1717743;82;25783;-77
2020/12/16 06:07:45;;;;;;;50.00;26.65;;;;;;;2.72;84.96;100773.24;1712903;82;26560;-77
2020/12/16 06:10:11;;;;;;;;;;;;;;;2.72;84.96;100773.24;1722703;81;25898;-77
2020/12/16 06:12:40;;;;;;;45.77;26.63;;;;;;;2.73;84.56;100771.86;1724256;81;26408;-77
2020/12/16 06:15:16;;;;;;;52.93;28.85;;;;;;;2.76;84.68;100766.95;1719564;81;25659;-78
2020/12/16 06:17:48;;;;;;;49.90;28.05;;;;;;;2.79;84.65;100759.82;1723818;81;26594;-77
2020/12/16 06:20:17;;;;;;;47.15;27.93;;;;;;;2.83;84.62;100763.01;1725672;81;25616;-78
2020/12/16 06:22:46;;;;;;;48.52;27.15;;;;;;;2.79;84.42;100758.53;1721292;81;25666;-77
2020/12/16 06:25:17;;;;;;;47.50;27.98;;;;;;;2.79;84.42;100758.53;1721768;81;25835;-78
2020/12/16 06:27:45;;;;;;;;;;;;;;;2.79;84.49;100771.91;1718058;81;25762;-77
2020/12/16 06:30:20;;;;;;;41.23;25.10;;;;;;;2.77;84.44;100774.58;1716433;82;25901;-78
2020/12/16 06:32:52;;;;;;;44.48;27.17;;;;;;;2.76;84.45;100777.28;1714976;81;26396;-77
2020/12/16 06:35:20;;;;;;;42.15;25.50;;;;;;;2.72;84.46;100777.94;1721020;81;25884;-77
2020/12/16 06:37:48;;;;;;;41.05;23.92;;;;;;;2.75;84.28;100794.97;1728501;81;26241;-78
2020/12/16 06:40:42;;;;;;;43.25;24.85;;;;;;;2.77;84.43;100779.73;1675337;83;26599;-77
2020/12/16 06:43:34;;;;;;;39.45;24.65;;;;;;;2.72;84.50;100771.48;1681378;83;25787;-77
2020/12/16 06:46:24;;;;;;;46.58;25.85;;;;;;;2.87;84.41;100785.11;1672323;84;25694;-77
2020/12/16 06:48:51;;;;;;;44.70;25.52;;;;;;;2.95;84.43;100786.70;1667978;83;25746;-77
2020/12/16 06:51:24;;;;;;;45.15;26.87;;;;;;;2.94;84.28;100789.37;1669850;83;25938;-77
2020/12/16 06:54:07;;;;;;;43.73;25.90;;;;;;;2.94;84.25;100795.83;1689321;83;25826;-77
2020/12/16 06:56:34;;;;;;;43.55;25.75;;;;;;;2.92;84.25;100793.37;1690278;83;26908;-78
2020/12/16 06:59:00;;;;;;;43.73;25.90;;;;;;;2.91;84.30;100794.28;1680230;83;25910;-77
2020/12/16 07:01:27;;;;;;;43.83;26.65;;;;;;;2.91;84.29;100798.16;1673581;83;25558;-78
2020/12/16 07:03:53;;;;;;;42.98;24.98;;;;;;;2.86;84.28;100802.36;1683250;83;26418;-77
2020/12/16 07:06:35;;;;;;;40.17;23.42;;;;;;;2.75;84.49;100789.34;1672222;83;25678;-77
2020/12/16 07:09:21;;;;;;;39.75;23.27;;;;;;;2.75;84.49;100789.34;1682328;83;26370;-77
2020/12/16 07:11:53;;;;;;;45.75;24.05;;;;;;;2.88;84.41;100811.28;1671593;84;26366;-77
2020/12/16 07:14:27;;;;;;;41.25;23.32;;;;;;;2.91;84.53;100820.10;1670954;84;25657;-77
2020/12/16 07:17:07;;;;;;;40.20;23.25;;;;;;;2.91;84.36;100822.69;1665667;84;25733;-77
2020/12/16 07:19:34;;;;;;;40.80;23.83;;;;;;;2.94;84.38;100821.18;1672846;83;26298;-77
2020/12/16 07:22:22;;;;;;;43.23;24.77;;;;;;;2.98;84.35;100826.98;1677608;84;26465;-77
2020/12/16 07:24:51;;;;;;;45.80;25.25;;;;;;;2.89;84.35;100800.86;1677097;83;26579;-78
2020/12/16 07:27:21;;;;;;;41.10;24.60;;;;;;;2.96;84.34;100807.71;1671973;83;25662;-77
2020/12/16 07:29:57;;;;;;;40.88;24.95;;;;;;;3.09;84.37;100833.53;1677221;83;25805;-78
2020/12/16 07:32:25;;;;;;;40.98;23.85;;;;;;;3.11;84.33;100835.55;1677096;84;25467;-77
2020/12/16 07:34:55;;;;;;;37.65;23.50;;;;;;;3.11;84.34;100838.13;1682128;83;25683;-78
2020/12/16 07:37:25;;;;;;;42.15;23.05;;;;;;;3.11;84.34;100838.13;1682227;83;25590;-77
2020/12/16 07:39:55;;;;;;;42.27;24.00;;;;;;;3.14;84.14;100847.39;1711381;81;25718;-78
2020/12/16 07:42:26;;;;;;;40.28;24.25;;;;;;;3.14;84.14;100847.39;1698566;82;25416;-77
2020/12/16 07:44:53;;;;;;;37.63;22.80;;;;;;;3.14;84.29;100848.69;1718801;81;25557;-77
2020/12/16 07:47:20;;;;;;;37.85;20.97;;;;;;;3.16;84.35;100850.70;1722223;81;25625;-77
2020/12/16 07:49:46;;;;;;;33.80;21.42;;;;;;;3.19;84.35;100846.62;1702724;81;25807;-77
2020/12/16 07:52:12;;;;;;;33.95;19.42;;;;;;;3.19;84.15;100854.37;1713444;81;26387;-78
2020/12/16 07:54:39;;;;;;;30.48;18.60;;;;;;;3.22;84.24;100851.13;1714488;81;25709;-77
2020/12/16 07:57:06;;;;;;;26.77;17.75;;;;;;;3.28;84.21;100853.75;1732422;80;25742;-77
2020/12/16 07:59:38;;;;;;;30.85;18.55;;;;;;;3.32;84.14;100852.59;1718436;81;26433;-77
2020/12/16 08:02:13;;;;;;;31.77;18.52;;;;;;;3.37;83.94;100860.86;1711376;81;26672;-77
2020/12/16 08:04:42;;;;;;;29.30;18.05;;;;;;;3.41;84.00;100868.77;1704783;81;25926;-77
2020/12/16 08:07:21;;;;;;;33.50;19.30;;;;;;;3.40;84.00;100872.74;1718150;81;26444;-77
2020/12/16 08:10:03;;;;;;;35.30;19.77;;;;;;;3.41;84.00;100871.36;1717238;81;25822;-78
2020/12/16 08:12:40;;;;;;;35.00;20.80;;;;;;;3.41;83.72;100872.65;1749624;80;26352;-77
2020/12/16 08:15:13;;;;;;;30.27;18.10;;;;;;;3.42;83.98;100878.64;1733710;80;25672;-78
2020/12/16 08:17:41;;;;;;;27.25;17.73;;;;;;;3.42;83.98;100878.64;1722701;82;25352;-77
2020/12/16 08:20:23;;;;;;;28.45;17.02;;;;;;;3.31;83.88;100861.29;1718413;81;25940;-78
2020/12/16 08:22:57;;;;;;;29.77;18.10;;;;;;;3.44;84.00;100875.48;1741158;80;25691;-77
2020/12/16 08:25:24;;;;;;;27.22;17.20;;;;;;;3.49;83.99;100875.97;1745525;80;26699;-77
2020/12/16 08:27:56;;;;;;;28.38;17.52;;;;;;;3.54;83.93;100876.48;1719143;81;25787;-77
2020/12/16 08:30:25;;;;;;;27.35;16.57;;;;;;;3.54;83.71;100886.34;1747751;80;25534;-77
2020/12/16 08:33:03;;;;;;;32.30;17.92;;;;;;;3.58;83.90;100882.28;1736494;81;25640;-78
2020/12/16 08:35:34;;;;;;;28.90;16.93;;;;;;;3.68;83.79;100881.98;1735627;81;25438;-78
2020/12/16 08:38:05;;;;;;;30.00;17.35;;;;;;;3.71;83.60;100888.22;1775134;80;25651;-78
2020/12/16 08:40:42;;;;;;;27.67;17.32;;;;;;;3.71;83.58;100890.36;1731969;81;26403;-78
2020/12/16 08:43:27;;;;;;;26.90;17.42;;;;;;;3.74;83.39;100895.31;1743063;80;25935;-78
2020/12/16 08:46:07;;;;;;;27.48;16.85;;;;;;;3.73;83.39;100893.64;1719174;81;25791;-77
2020/12/16 08:48:50;;;;;;;32.28;18.17;;;;;;;3.77;83.67;100895.09;1744567;80;26662;-78
2020/12/16 08:51:36;;;;;;;34.60;18.25;;;;;;;3.77;83.29;100895.09;1744743;80;26365;-77
2020/12/16 08:54:07;;;;;;;30.00;17.92;;;;;;;3.75;83.39;100898.72;1724479;81;25764;-78
2020/12/16 08:56:40;;;;;;;24.27;15.28;;;;;;;3.76;83.46;100902.50;1726722;81;25824;-78
2020/12/16 08:59:13;;;;;;;27.60;15.25;;;;;;;3.68;83.09;100884.56;1746433;80;25775;-78
2020/12/16 09:01:47;;;;;;;26.00;15.45;;;;;;;3.80;83.29;100895.34;1744702;80;25724;-78
2020/12/16 09:04:27;;;;;;;27.07;15.28;;;;;;;3.85;83.51;100897.62;1736926;81;26270;-78
2020/12/16 09:07:15;;;;;;;25.57;15.20;;;;;;;3.94;83.50;100891.78;1753721;80;26349;-78
2020/12/16 09:09:49;;;;;;;28.75;16.55;;;;;;;4.02;83.23;100895.13;1718112;81;25930;-78
2020/12/16 09:12:19;;;;;;;26.73;16.12;;;;;;;4.07;83.35;100893.04;1745441;80;26433;-78
2020/12/16 09:14:55;;;;;;;25.73;16.90;;;;;;;4.08;83.01;100898.09;1721370;81;25833;-77
2020/12/16 09:17:24;;;;;;;26.90;16.70;;;;;;;4.06;83.14;100893.95;1738998;80;26365;-78
2020/12/16 09:19:50;;;;;;;29.15;17.20;;;;;;;4.06;82.90;100898.66;1713875;82;25775;-78
2020/12/16 09:22:26;;;;;;;25.85;15.05;;;;;;;4.06;83.14;100902.53;1741340;80;25737;-78
2020/12/16 09:24:59;;;;;;;26.82;16.10;;;;;;;4.09;82.96;100900.20;1738701;80;25968;-78
2020/12/16 09:27:26;;;;;;;23.57;14.13;;;;;;;4.00;83.03;100884.41;1718721;81;25468;-78
2020/12/16 09:29:52;;;;;;;25.68;14.58;;;;;;;4.15;82.87;100895.43;1742661;80;25560;-78
2020/12/16 09:32:24;;;;;;;24.50;15.58;;;;;;;4.18;83.12;100888.73;1726084;81;25816;-78
2020/12/16 09:34:53;;;;;;;25.32;16.15;;;;;;;4.26;83.24;100886.08;1745242;80;25704;-78
2020/12/16 09:37:36;;;;;;;23.77;15.55;;;;;;;4.29;82.94;100897.02;1733071;80;25601;-78
2020/12/16 09:40:11;;;;;;;25.97;16.25;;;;;;;4.29;82.78;100907.84;1705625;81;25602;-78
2020/12/16 09:42:38;;;;;;;28.40;17.82;;;;;;;4.27;82.58;100909.23;1743919;79;25754;-78
2020/12/16 09:45:18;;;;;;;27.52;16.73;;;;;;;4.24;82.54;100906.88;1748796;79;25579;-78
2020/12/16 09:47:47;;;;;;;25.45;15.40;;;;;;;4.21;82.74;100903.22;1729783;80;25557;-77
2020/12/16 09:50:14;;;;;;;26.10;15.83;;;;;;;4.22;82.88;100910.03;1751613;79;25559;-78
2020/12/16 09:52:41;;;;;;;24.57;15.15;;;;;;;4.21;82.39;100903.22;1751746;79;25525;-78
2020/12/16 09:55:20;;;;;;;22.02;13.20;;;;;;;4.19;82.53;100894.25;1759043;79;25893;-77
2020/12/16 09:58:02;;;;;;;25.68;15.70;;;;;;;4.23;82.60;100894.88;1730874;79;25493;-78
2020/12/16 10:00:32;;;;;;;26.33;17.20;;;;;;;4.25;82.79;100902.04;1754100;79;25539;-78
2020/12/16 10:03:10;;;;;;;28.15;16.02;;;;;;;4.27;82.74;100905.35;1748150;80;25439;-78
2020/12/16 10:05:39;;;;;;;28.12;17.05;;;;;;;4.31;82.82;100904.20;1757981;79;25694;-78
2020/12/16 10:08:12;;;;;;;30.88;18.10;;;;;;;4.34;82.81;100908.34;1751162;79;25837;-77
2020/12/16 10:10:37;;;;;;;28.03;18.40;;;;;;;4.35;82.76;100908.69;1735120;79;25807;-78
2020/12/16 10:13:03;;;;;;;33.45;19.40;;;;;;;4.35;82.86;100906.92;1742513;80;26316;-78
2020/12/16 10:15:33;;;;;;;32.50;18.37;;;;;;;4.37;82.89;100901.64;1758025;79;25846;-78
2020/12/16 10:17:59;;;;;;;32.95;17.90;;;;;;;4.41;82.92;100907.76;1743968;79;25833;-77
2020/12/16 10:20:28;;;;;;;31.60;19.92;;;;;;;4.45;82.84;100904.50;1748926;80;26711;-78
2020/12/16 10:22:54;;;;;;;29.65;18.57;;;;;;;4.48;82.82;100908.63;1752400;80;25606;-78
2020/12/16 10:25:21;;;;;;;30.08;19.55;;;;;;;4.34;82.82;100883.76;1737441;79;25862;-78
2020/12/16 10:27:48;;;;;;;36.90;20.52;;;;;;;4.53;82.90;100911.23;1735729;79;25861;-77
2020/12/16 10:30:16;;;;;;;35.83;21.25;;;;;;;4.56;82.94;100909.71;1740368;80;25803;-78
2020/12/16 10:32:42;;;;;;;35.58;20.62;;;;;;;4.58;82.91;100920.78;1742612;81;25776;-77
2020/12/16 10:35:09;;;;;;;38.25;22.93;;;;;;;4.61;82.90;100919.71;1742046;79;25657;-78
2020/12/16 10:37:40;;;;;;;36.70;20.32;;;;;;;4.63;83.08;100924.31;1733100;80;25763;-78
2020/12/16 10:40:09;;;;;;;35.48;21.55;;;;;;;4.53;83.06;100908.65;1736021;79;25785;-78
2020/12/16 10:42:34;;;;;;;34.23;20.55;;;;;;;4.63;82.81;100921.72;1735510;79;25894;-78
2020/12/16 10:45:00;;;;;;;31.65;20.68;;;;;;;4.64;82.98;100926.80;1734106;80;26413;-78
2020/12/16 10:47:29;;;;;;;37.23;22.13;;;;;;;4.65;83.01;100928.44;1717851;81;25918;-78
2020/12/16 10:49:55;;;;;;;38.10;20.92;;;;;;;4.67;82.93;100929.16;1741172;80;26028;-78
2020/12/16 10:52:22;;;;;;;34.88;21.75;;;;;;;4.68;82.79;100926.92;1714083;81;25739;-78
2020/12/16 10:54:48;;;;;;;33.13;20.08;;;;;;;4.68;82.77;100930.80;1737464;80;26305;-78
2020/12/16 10:57:14;;;;;;;38.73;21.93;;;;;;;4.71;82.64;100931.52;1716090;81;26322;-78
2020/12/16 10:59:41;;;;;;;39.65;21.65;;;;;;;4.72;82.64;100930.12;1736918;80;26294;-78
2020/12/16 11:02:08;;;;;;;36.13;20.17;;;;;;;4.73;82.80;100928.36;1715226;81;25906;-77
2020/12/16 11:04:35;;;;;;;41.33;22.32;;;;;;;4.74;82.78;100920.46;1741159;80;25833;-78
2020/12/16 11:07:03;;;;;;;37.33;22.32;;;;;;;4.73;82.90;100918.82;1713537;81;25823;-78
2020/12/16 11:09:29;;;;;;;38.50;21.48;;;;;;;4.77;82.85;100924.59;1711729;81;25763;-78
2020/12/16 11:11:56;;;;;;;37.70;22.02;;;;;;;4.78;82.72;100925.78;1738546;80;25821;-78
2020/12/16 11:14:25;;;;;;;38.83;23.52;;;;;;;4.79;82.68;100924.02;1712007;81;25863;-78
2020/12/16 11:16:54;;;;;;;37.45;22.20;;;;;;;4.79;82.75;100926.13;1716945;80;26455;-78
2020/12/16 11:19:21;;;;;;;40.52;23.40;;;;;;;4.80;82.73;100926.50;1734943;80;26389;-78
2020/12/16 11:21:51;;;;;;;39.92;22.45;;;;;;;4.82;82.83;100929.78;1704120;81;25706;-78
2020/12/16 11:24:23;;;;;;;42.03;24.02;;;;;;;4.84;82.56;100933.56;1701435;81;25776;-78
2020/12/16 11:26:51;;;;;;;35.45;22.85;;;;;;;4.83;82.52;100935.81;1709360;81;25711;-78
2020/12/16 11:29:21;;;;;;;40.25;22.55;;;;;;;4.79;82.51;100942.14;1737712;81;26564;-77
2020/12/16 11:31:57;;;;;;;35.98;20.95;;;;;;;4.77;82.75;100939.65;1719804;81;25568;-78
2020/12/16 11:34:26;;;;;;;43.00;23.20;;;;;;;4.83;82.85;100944.88;1741622;80;25653;-77
2020/12/16 11:36:57;;;;;;;44.85;23.75;;;;;;;4.85;82.75;100942.98;1744493;80;43353;-78
2020/12/16 11:39:25;;;;;;;38.33;22.73;;;;;;;4.86;82.62;100948.53;1742916;80;25941;-77
2020/12/16 11:41:53;;;;;;;42.15;25.43;;;;;;;4.89;82.75;100953.48;1729119;80;26298;-77